createdAt,value
2023-02-17T00:01:37.149Z,107.57
2023-02-17T00:04:05.221Z,104.00
2023-02-17T00:06:33.162Z,108.20
2023-02-17T00:09:02.111Z,108.43
2023-02-17T00:11:30.336Z,105.40
2023-02-17T00:13:58.242Z,106.15
2023-02-17T00:16:29.012Z,103.47
2023-02-17T00:19:01.936Z,103.88
2023-02-17T00:21:32.110Z,106.22
2023-02-17T00:24:00.646Z,103.00
2023-02-17T00:26:28.878Z,107.63
2023-02-17T00:28:58.793Z,106.40
2023-02-17T00:31:26.867Z,106.35
2023-02-17T00:33:56.212Z,105.40
2023-02-17T00:36:25.771Z,105.03
2023-02-17T00:38:56.053Z,105.82
2023-02-17T00:41:25.925Z,107.30
2023-02-17T00:43:54.371Z,105.35
2023-02-17T00:46:23.939Z,106.63
2023-02-17T00:48:53.860Z,105.68
2023-02-17T00:51:22.308Z,107.65
2023-02-17T00:53:51.065Z,109.00
2023-02-17T00:56:19.164Z,108.25
2023-02-17T00:58:47.093Z,106.43
2023-02-17T01:01:15.292Z,107.68
2023-02-17T01:03:44.123Z,107.47
2023-02-17T01:06:28.274Z,109.00
2023-02-17T01:08:56.198Z,107.25
2023-02-17T01:11:27.313Z,108.03
2023-02-17T01:13:56.678Z,108.60
2023-02-17T01:16:30.585Z,109.32
2023-02-17T01:19:00.372Z,111.00
2023-02-17T01:21:30.139Z,110.70
2023-02-17T01:24:00.877Z,109.72
2023-02-17T01:26:31.385Z,110.43
2023-02-17T01:28:59.545Z,112.95
2023-02-17T01:31:28.363Z,110.35
2023-02-17T01:33:58.973Z,110.97
2023-02-17T01:36:27.565Z,110.32
2023-02-17T01:38:55.617Z,112.85
2023-02-17T01:41:27.289Z,110.32
2023-02-17T01:44:13.676Z,107.88
2023-02-17T01:46:44.817Z,110.07
2023-02-17T01:49:37.114Z,110.32
2023-02-17T01:52:18.784Z,112.30
2023-02-17T01:54:55.684Z,113.07
2023-02-17T01:57:27.864Z,109.35
2023-02-17T01:59:57.639Z,109.22
2023-02-17T02:02:26.025Z,109.13
2023-02-17T02:04:54.469Z,111.45
2023-02-17T02:07:37.363Z,109.63
2023-02-17T02:10:06.018Z,113.68
2023-02-17T02:12:39.099Z,110.28
2023-02-17T02:15:13.824Z,111.82
2023-02-17T02:18:07.549Z,112.47
2023-02-17T02:21:18.612Z,110.50
2023-02-17T02:23:53.277Z,110.90
2023-02-17T02:27:02.341Z,110.63
2023-02-17T02:29:45.734Z,110.10
2023-02-17T02:32:50.313Z,112.40
2023-02-17T02:35:43.824Z,110.65
2023-02-17T02:38:29.632Z,114.45
2023-02-17T02:41:08.528Z,108.55
2023-02-17T02:43:37.977Z,110.35
2023-02-17T02:46:06.569Z,109.18
2023-02-17T02:48:36.092Z,107.25
2023-02-17T02:51:32.342Z,107.38
2023-02-17T02:54:18.280Z,105.07
2023-02-17T02:57:19.693Z,108.57
2023-02-17T03:00:06.551Z,110.00
2023-02-17T03:02:52.835Z,107.50
2023-02-17T03:06:05.640Z,109.22
2023-02-17T03:08:53.868Z,109.70
2023-02-17T03:11:35.355Z,107.55
2023-02-17T03:14:13.969Z,109.63
2023-02-17T03:16:43.719Z,108.65
2023-02-17T03:19:14.034Z,111.32
2023-02-17T03:21:49.125Z,109.50
2023-02-17T03:24:18.390Z,109.60
2023-02-17T03:26:46.511Z,108.72
2023-02-17T03:29:14.592Z,109.90
2023-02-17T03:31:43.007Z,109.57
2023-02-17T03:34:11.099Z,112.13
2023-02-17T03:36:38.972Z,109.47
2023-02-17T03:39:06.991Z,106.43
2023-02-17T03:41:34.951Z,106.63
2023-02-17T03:44:02.857Z,104.97
2023-02-17T03:46:30.812Z,107.22
2023-02-17T03:48:58.735Z,101.22
2023-02-17T03:51:26.697Z,104.25
2023-02-17T03:53:54.624Z,106.43
2023-02-17T03:56:22.665Z,106.50
2023-02-17T03:58:50.877Z,108.00
2023-02-17T04:01:18.991Z,106.38
2023-02-17T04:03:47.052Z,109.25
2023-02-17T04:06:15.315Z,108.78
2023-02-17T04:08:43.347Z,104.15
2023-02-17T04:11:11.329Z,109.50
2023-02-17T04:13:40.297Z,110.07
2023-02-17T04:16:10.110Z,106.85
2023-02-17T04:18:38.967Z,108.85
2023-02-17T04:21:07.325Z,107.00
2023-02-17T04:23:37.301Z,107.90
2023-02-17T04:26:07.348Z,105.35
2023-02-17T04:28:38.466Z,107.85
2023-02-17T04:31:07.301Z,105.88
2023-02-17T04:33:35.659Z,105.88
2023-02-17T04:36:04.156Z,103.35
2023-02-17T04:38:33.985Z,105.10
2023-02-17T04:41:01.981Z,102.93
2023-02-17T04:43:30.571Z,105.40
2023-02-17T04:45:59.121Z,104.97
2023-02-17T04:48:27.277Z,104.40
2023-02-17T04:50:55.298Z,104.28
2023-02-17T04:53:23.448Z,104.07
2023-02-17T04:55:53.621Z,97.20
2023-02-17T04:58:22.277Z,100.63
2023-02-17T05:00:51.066Z,97.80
2023-02-17T05:03:19.679Z,99.50
2023-02-17T05:05:47.938Z,98.22
2023-02-17T05:08:16.294Z,93.43
2023-02-17T05:10:44.490Z,84.53
2023-02-17T05:13:12.588Z,87.05
2023-02-17T05:15:40.658Z,87.63
2023-02-17T05:18:08.810Z,76.00
2023-02-17T05:20:36.876Z,69.30
2023-02-17T05:23:05.199Z,55.45
2023-02-17T05:25:33.403Z,55.30
2023-02-17T05:28:02.871Z,52.58
2023-02-17T05:30:32.644Z,54.95
2023-02-17T05:33:01.189Z,50.55
2023-02-17T05:35:29.188Z,50.67
2023-02-17T05:37:57.257Z,49.05
2023-02-17T05:40:25.343Z,53.25
2023-02-17T05:42:53.312Z,50.53
2023-02-17T05:45:21.373Z,50.75
2023-02-17T05:47:49.441Z,47.88
2023-02-17T05:50:17.592Z,50.17
2023-02-17T05:52:45.696Z,51.00
2023-02-17T05:55:14.217Z,50.33
2023-02-17T05:57:42.258Z,52.78
2023-02-17T06:00:10.926Z,50.30
2023-02-17T06:02:42.150Z,51.53
2023-02-17T06:05:10.639Z,51.70
2023-02-17T06:07:38.928Z,53.40
2023-02-17T06:10:07.763Z,55.20
2023-02-17T06:12:36.051Z,57.20
2023-02-17T06:15:04.288Z,54.55
2023-02-17T06:17:32.424Z,55.50
2023-02-17T06:20:00.486Z,55.03
2023-02-17T06:22:28.606Z,55.92
2023-02-17T06:24:56.655Z,54.00
2023-02-17T06:27:25.042Z,54.38
2023-02-17T06:29:53.122Z,54.17
2023-02-17T06:32:21.289Z,54.40
2023-02-17T06:34:49.438Z,55.53
2023-02-17T06:37:17.527Z,56.85
2023-02-17T06:39:45.628Z,52.50
2023-02-17T06:42:13.730Z,51.50
2023-02-17T06:44:41.894Z,49.75
2023-02-17T06:47:10.070Z,50.17
2023-02-17T06:49:40.465Z,49.38
2023-02-17T06:52:08.978Z,50.90
2023-02-17T06:54:37.053Z,50.15
2023-02-17T06:57:05.258Z,47.95
2023-02-17T06:59:34.048Z,51.17
2023-02-17T07:02:02.781Z,50.25
2023-02-17T07:04:31.307Z,52.10
2023-02-17T07:06:59.496Z,50.50
2023-02-17T07:09:27.518Z,49.60
2023-02-17T07:11:55.684Z,48.00
2023-02-17T07:14:25.054Z,46.63
2023-02-17T07:16:53.909Z,49.05
2023-02-17T07:19:21.990Z,48.53
2023-02-17T07:21:50.100Z,49.95
2023-02-17T07:24:18.406Z,47.95
2023-02-17T07:26:46.576Z,50.47
2023-02-17T07:29:14.669Z,49.92
2023-02-17T07:31:42.717Z,48.85
2023-02-17T07:34:10.873Z,49.95
2023-02-17T07:36:39.086Z,49.80
2023-02-17T07:39:07.552Z,53.03
2023-02-17T07:41:35.651Z,51.55
2023-02-17T07:44:10.759Z,55.25
2023-02-17T07:46:42.774Z,55.00
2023-02-17T07:49:11.283Z,56.13
2023-02-17T07:51:39.451Z,64.18
2023-02-17T07:54:07.486Z,78.07
2023-02-17T07:56:35.796Z,88.57
2023-02-17T07:59:03.876Z,88.68
2023-02-17T08:01:31.973Z,85.53
2023-02-17T08:04:00.182Z,83.93
2023-02-17T08:06:28.484Z,87.10
2023-02-17T08:09:15.951Z,91.13
2023-02-17T08:12:03.369Z,91.43
2023-02-17T08:14:33.813Z,90.55
2023-02-17T08:17:02.042Z,89.47
2023-02-17T08:19:46.333Z,92.70
2023-02-17T08:22:16.893Z,94.10
2023-02-17T08:24:45.182Z,103.28
2023-02-17T08:27:15.056Z,99.53
2023-02-17T08:29:44.168Z,97.38
2023-02-17T08:32:13.335Z,96.30
2023-02-17T08:34:41.606Z,96.18
2023-02-17T08:37:10.849Z,98.53
2023-02-17T08:39:38.937Z,101.72
2023-02-17T08:42:07.112Z,99.68
2023-02-17T08:44:36.742Z,103.40
2023-02-17T08:47:05.914Z,105.13
2023-02-17T08:49:33.889Z,105.10
2023-02-17T08:52:01.846Z,109.13
2023-02-17T08:54:29.929Z,107.20
2023-02-17T08:56:58.901Z,109.50
2023-02-17T08:59:26.905Z,112.38
2023-02-17T09:01:55.907Z,113.43
2023-02-17T09:04:23.988Z,111.30
2023-02-17T09:06:56.307Z,111.30
2023-02-17T09:09:27.102Z,111.53
2023-02-17T09:11:57.249Z,111.72
2023-02-17T09:14:25.480Z,113.75
2023-02-17T09:16:54.897Z,112.80
2023-02-17T09:19:23.815Z,114.68
2023-02-17T09:21:52.146Z,113.18
2023-02-17T09:24:20.117Z,113.78
2023-02-17T09:26:48.144Z,110.68
2023-02-17T09:29:16.172Z,111.30
2023-02-17T09:31:45.885Z,113.53
2023-02-17T09:34:15.011Z,112.70
2023-02-17T09:36:43.394Z,111.65
2023-02-17T09:39:13.818Z,112.55
2023-02-17T09:41:50.152Z,114.93
2023-02-17T09:44:23.445Z,116.30
2023-02-17T09:47:03.188Z,113.15
2023-02-17T09:49:48.439Z,115.60
2023-02-17T09:52:49.597Z,115.95
2023-02-17T09:55:26.968Z,117.72
2023-02-17T09:58:00.193Z,118.00
2023-02-17T10:03:15.356Z,116.43
2023-02-17T10:06:05.852Z,118.93
2023-02-17T10:08:45.820Z,122.43
2023-02-17T10:11:29.612Z,119.75
2023-02-17T10:14:02.786Z,121.95
2023-02-17T10:19:16.644Z,114.93
2023-02-17T10:22:12.766Z,118.30
2023-02-17T10:24:40.774Z,123.63
2023-02-17T10:27:36.006Z,121.43
2023-02-17T10:30:19.429Z,123.07
2023-02-17T10:33:12.176Z,123.15
2023-02-17T10:35:50.752Z,124.78
2023-02-17T10:38:24.650Z,125.32
2023-02-17T10:40:56.179Z,126.60
2023-02-17T10:43:30.529Z,125.57
2023-02-17T10:46:01.234Z,123.07
2023-02-17T10:48:42.895Z,117.43
2023-02-17T10:51:16.324Z,123.43
2023-02-17T10:53:48.642Z,117.05
2023-02-17T10:56:47.492Z,115.37
2023-02-17T10:59:28.175Z,122.25
2023-02-17T11:02:23.443Z,120.40
2023-02-17T11:04:56.822Z,116.18
2023-02-17T11:07:33.689Z,116.00
2023-02-17T11:10:05.273Z,110.68
2023-02-17T11:12:42.414Z,107.22
2023-02-17T11:15:18.584Z,104.25
2023-02-17T11:17:48.044Z,104.28
2023-02-17T11:20:16.043Z,103.97
2023-02-17T11:23:05.584Z,103.68
2023-02-17T11:25:37.973Z,102.30
2023-02-17T11:28:12.677Z,101.80
2023-02-17T11:30:49.028Z,99.55
2023-02-17T11:33:29.418Z,99.28
2023-02-17T11:35:58.569Z,94.35
2023-02-17T11:38:42.728Z,89.03
2023-02-17T11:41:11.346Z,93.82
2023-02-17T11:43:40.307Z,97.63
2023-02-17T11:46:20.037Z,100.07
2023-02-17T11:49:02.569Z,87.82
2023-02-17T11:52:01.172Z,97.70
2023-02-17T11:55:08.019Z,98.03
2023-02-17T11:57:45.291Z,100.03
2023-02-17T12:01:04.219Z,96.50
2023-02-17T12:04:05.025Z,95.25
2023-02-17T12:06:32.898Z,92.32
2023-02-17T12:09:08.236Z,90.40
2023-02-17T12:11:44.702Z,87.10
2023-02-17T12:14:33.604Z,87.78
2023-02-17T12:17:32.140Z,87.18
2023-02-17T12:20:29.125Z,81.78
2023-02-17T12:22:59.744Z,85.03
2023-02-17T12:25:34.312Z,82.47
2023-02-17T12:28:46.504Z,79.18
2023-02-17T12:31:46.998Z,77.18
2023-02-17T12:34:29.894Z,75.22
2023-02-17T12:36:59.566Z,70.82
2023-02-17T12:39:50.663Z,70.78
2023-02-17T12:42:30.557Z,70.45
2023-02-17T12:45:06.237Z,65.28
2023-02-17T12:48:04.717Z,64.65
2023-02-17T12:50:52.365Z,63.25
2023-02-17T12:53:41.321Z,60.65
2023-02-17T12:56:31.737Z,54.78
2023-02-17T12:59:23.134Z,56.63
2023-02-17T13:01:59.307Z,53.67
2023-02-17T13:04:30.354Z,52.00
2023-02-17T13:07:04.553Z,53.55
2023-02-17T13:09:37.001Z,52.03
2023-02-17T13:12:25.196Z,55.03
2023-02-17T13:14:56.272Z,51.97
2023-02-17T13:17:43.131Z,49.25
2023-02-17T13:20:11.322Z,37.90
2023-02-17T13:22:41.598Z,40.75
2023-02-17T13:25:26.342Z,44.25
2023-02-17T13:27:54.642Z,40.45
2023-02-17T13:30:22.898Z,40.58
2023-02-17T13:33:20.487Z,35.95
2023-02-17T13:35:49.458Z,31.00
2023-02-17T13:38:32.410Z,31.30
2023-02-17T13:43:31.747Z,23.00
2023-02-17T13:46:05.811Z,17.67
2023-02-17T13:48:36.033Z,18.13
2023-02-17T13:51:24.602Z,21.05
2023-02-17T13:53:53.017Z,19.92
2023-02-17T13:56:31.257Z,19.15
2023-02-17T13:59:19.097Z,16.70
2023-02-17T14:01:47.778Z,16.15
2023-02-17T14:04:38.904Z,15.00
2023-02-17T14:07:07.177Z,13.63
2023-02-17T14:09:36.000Z,14.82
2023-02-17T14:12:07.790Z,14.23
2023-02-17T14:14:38.689Z,14.70
2023-02-17T14:17:14.314Z,13.82
2023-02-17T14:19:47.998Z,13.80
2023-02-17T14:22:29.162Z,14.43
2023-02-17T14:25:03.481Z,14.20
2023-02-17T14:27:51.923Z,14.32
2023-02-17T14:30:37.611Z,16.25
2023-02-17T14:33:21.193Z,16.48
2023-02-17T14:35:57.204Z,15.60
2023-02-17T14:38:32.546Z,14.38
2023-02-17T14:41:01.401Z,14.02
2023-02-17T14:43:30.156Z,14.73
2023-02-17T14:45:58.707Z,14.30
2023-02-17T14:48:28.012Z,15.10
2023-02-17T14:50:57.945Z,14.30
2023-02-17T14:53:28.098Z,14.98
2023-02-17T14:56:03.199Z,15.70
2023-02-17T14:58:31.932Z,15.27
2023-02-17T15:01:00.944Z,15.10
2023-02-17T15:03:29.112Z,15.63
2023-02-17T15:05:57.843Z,16.10
2023-02-17T15:08:32.872Z,15.50
2023-02-17T15:11:02.780Z,16.25
2023-02-17T15:13:32.313Z,15.63
2023-02-17T15:16:00.866Z,15.95
2023-02-17T15:18:29.141Z,15.82
2023-02-17T15:20:57.491Z,15.45
2023-02-17T15:23:26.637Z,16.15
2023-02-17T15:25:56.313Z,15.93
2023-02-17T15:28:24.508Z,14.52
2023-02-17T15:30:55.113Z,15.18
2023-02-17T15:33:24.943Z,15.93
2023-02-17T15:35:54.871Z,15.68
2023-02-17T15:38:24.509Z,16.02
2023-02-17T15:40:52.698Z,17.20
2023-02-17T15:43:23.313Z,16.50
2023-02-17T15:45:51.567Z,16.85
2023-02-17T15:48:24.375Z,16.40
2023-02-17T15:50:53.849Z,17.35
2023-02-17T15:53:22.494Z,16.48
2023-02-17T15:55:52.653Z,15.93
2023-02-17T15:58:23.272Z,16.48
2023-02-17T16:00:51.532Z,17.15
2023-02-17T16:03:19.804Z,16.05
2023-02-17T16:05:48.317Z,16.25
2023-02-17T16:08:16.653Z,15.95
2023-02-17T16:10:47.206Z,17.02
2023-02-17T16:13:19.855Z,17.13
2023-02-17T16:15:49.189Z,16.58
2023-02-17T16:18:22.829Z,17.98
2023-02-17T16:20:52.305Z,17.38
2023-02-17T16:23:20.568Z,17.70
2023-02-17T16:25:50.526Z,19.10
2023-02-17T16:28:22.847Z,18.75
2023-02-17T16:30:51.082Z,19.10
2023-02-17T16:33:19.444Z,21.92
2023-02-17T16:35:51.035Z,20.88
2023-02-17T16:38:23.215Z,19.70
2023-02-17T16:40:53.339Z,19.85
2023-02-17T16:43:25.578Z,19.25
2023-02-17T16:45:56.963Z,19.65
2023-02-17T16:48:28.219Z,19.13
2023-02-17T16:50:56.564Z,18.83
2023-02-17T16:53:24.602Z,19.88
2023-02-17T16:55:55.500Z,20.10
2023-02-17T16:58:26.384Z,20.17
2023-02-17T17:00:56.038Z,21.15
2023-02-17T17:03:24.096Z,27.45
2023-02-17T17:05:53.331Z,22.08
2023-02-17T17:08:23.466Z,27.75
2023-02-17T17:10:51.532Z,25.90
2023-02-17T17:13:19.618Z,27.92
2023-02-17T17:15:47.686Z,31.52
2023-02-17T17:18:21.469Z,33.50
2023-02-17T17:20:50.352Z,29.55
2023-02-17T17:23:19.325Z,25.83
2023-02-17T17:25:48.813Z,28.98
2023-02-17T17:28:19.032Z,28.42
2023-02-17T17:30:47.813Z,31.02
2023-02-17T17:33:16.525Z,42.08
2023-02-17T17:35:44.504Z,51.78
2023-02-17T17:38:15.790Z,56.10
2023-02-17T17:40:53.585Z,60.17
2023-02-17T17:43:23.673Z,63.83
2023-02-17T17:45:52.710Z,70.43
2023-02-17T17:48:21.598Z,71.32
2023-02-17T17:50:50.120Z,73.10
2023-02-17T17:53:18.292Z,74.70
2023-02-17T17:55:46.974Z,82.28
2023-02-17T17:58:16.451Z,90.53
2023-02-17T18:00:44.632Z,93.72
2023-02-17T18:03:12.832Z,92.55
2023-02-17T18:05:40.911Z,92.00
2023-02-17T18:08:09.709Z,94.53
2023-02-17T18:10:40.687Z,94.95
2023-02-17T18:13:11.016Z,99.63
2023-02-17T18:15:41.698Z,98.70
2023-02-17T18:18:10.967Z,102.18
2023-02-17T18:20:39.082Z,97.63
2023-02-17T18:23:07.074Z,104.43
2023-02-17T18:25:35.242Z,106.45
2023-02-17T18:28:03.508Z,107.43
2023-02-17T18:30:31.642Z,111.28
2023-02-17T18:32:59.737Z,112.60
2023-02-17T18:35:27.806Z,113.97
2023-02-17T18:37:55.923Z,114.78
2023-02-17T18:40:24.064Z,114.45
2023-02-17T18:42:52.052Z,120.13
2023-02-17T18:45:20.146Z,113.97
2023-02-17T18:47:48.485Z,112.78
2023-02-17T18:50:16.633Z,116.18
2023-02-17T18:52:44.803Z,113.07
2023-02-17T18:55:13.858Z,117.05
2023-02-17T18:57:42.394Z,117.47
2023-02-17T19:00:13.420Z,120.57
2023-02-17T19:02:41.784Z,122.05
2023-02-17T19:05:12.006Z,119.45
2023-02-17T19:07:39.897Z,120.88
2023-02-17T19:10:08.622Z,123.43
2023-02-17T19:12:38.401Z,120.35
2023-02-17T19:15:21.617Z,117.18
2023-02-17T19:17:51.290Z,117.78
2023-02-17T19:20:19.308Z,113.22
2023-02-17T19:22:47.362Z,115.50
2023-02-17T19:25:15.443Z,113.05
2023-02-17T19:27:43.609Z,112.10
2023-02-17T19:30:12.536Z,116.03
2023-02-17T19:32:41.005Z,110.90
2023-02-17T19:35:11.585Z,115.00
2023-02-17T19:37:39.900Z,112.00
2023-02-17T19:40:08.632Z,118.65
2023-02-17T19:42:37.381Z,113.63
2023-02-17T19:45:06.513Z,114.68
2023-02-17T19:47:34.524Z,115.95
2023-02-17T19:50:02.633Z,116.72
2023-02-17T19:52:30.628Z,121.32
2023-02-17T19:54:58.624Z,114.53
2023-02-17T19:57:26.614Z,114.85
2023-02-17T19:59:55.030Z,112.00
2023-02-17T20:02:23.191Z,112.28
2023-02-17T20:04:53.205Z,110.75
2023-02-17T20:07:21.345Z,115.43
2023-02-17T20:09:49.428Z,117.30
2023-02-17T20:12:22.038Z,113.32
2023-02-17T20:14:50.033Z,114.03
2023-02-17T20:17:18.045Z,112.78
2023-02-17T20:19:46.117Z,118.43
2023-02-17T20:22:14.379Z,107.85
2023-02-17T20:24:43.004Z,111.72
2023-02-17T20:27:11.178Z,112.38
2023-02-17T20:29:39.326Z,111.57
2023-02-17T20:32:08.795Z,111.43
2023-02-17T20:34:39.714Z,110.47
2023-02-17T20:37:09.491Z,113.70
2023-02-17T20:39:39.008Z,114.32
2023-02-17T20:42:07.271Z,113.15
2023-02-17T20:44:35.252Z,116.47
2023-02-17T20:47:03.619Z,116.13
2023-02-17T20:49:31.553Z,116.63
2023-02-17T20:51:59.406Z,117.65
2023-02-17T20:54:27.387Z,120.95
2023-02-17T20:56:58.294Z,121.15
2023-02-17T20:59:26.282Z,119.43
2023-02-17T21:01:54.238Z,117.05
2023-02-17T21:04:22.036Z,121.28
2023-02-17T21:06:50.655Z,121.00
2023-02-17T21:09:19.402Z,123.70
2023-02-17T21:11:47.897Z,123.80
2023-02-17T21:14:15.964Z,125.13
2023-02-17T21:16:44.155Z,122.13
2023-02-17T21:19:12.024Z,122.90
2023-02-17T21:21:41.123Z,124.43
2023-02-17T21:24:09.076Z,120.55
2023-02-17T21:26:37.025Z,118.55
2023-02-17T21:29:05.406Z,120.88
2023-02-17T21:31:33.597Z,119.15
2023-02-17T21:34:01.543Z,120.63
2023-02-17T21:36:29.658Z,124.93
2023-02-17T21:38:58.042Z,121.72
2023-02-17T21:41:28.113Z,121.68
2023-02-17T21:44:15.019Z,123.88
2023-02-17T21:46:43.553Z,122.30
2023-02-17T21:49:12.393Z,125.90
2023-02-17T21:51:41.377Z,121.55
2023-02-17T21:54:10.122Z,118.88
2023-02-17T21:56:38.999Z,123.65
2023-02-17T21:59:07.840Z,119.13
2023-02-17T22:01:35.728Z,121.30
2023-02-17T22:04:03.903Z,120.15
2023-02-17T22:06:36.108Z,118.00
2023-02-17T22:09:07.072Z,81.10
2023-02-17T22:11:39.318Z,115.45
2023-02-17T22:14:11.579Z,115.60
2023-02-17T22:16:39.704Z,116.03
2023-02-17T22:19:11.149Z,116.43
2023-02-17T22:21:39.149Z,117.88
2023-02-17T22:24:07.383Z,116.85
2023-02-17T22:26:35.353Z,115.82
2023-02-17T22:29:03.993Z,118.05
2023-02-17T22:31:34.108Z,115.65
2023-02-17T22:34:04.942Z,118.07
2023-02-17T22:36:35.206Z,117.28
2023-02-17T22:39:05.331Z,116.93
2023-02-17T22:41:35.097Z,114.90
2023-02-17T22:44:03.899Z,118.57
2023-02-17T22:46:32.070Z,118.65
2023-02-17T22:49:00.332Z,114.40
2023-02-17T22:51:35.909Z,115.35
2023-02-17T22:54:05.129Z,114.35
2023-02-17T22:56:33.586Z,117.53
2023-02-17T22:59:03.987Z,117.65
2023-02-17T23:01:34.187Z,119.70
2023-02-17T23:04:03.026Z,120.85
2023-02-17T23:06:33.896Z,119.05
2023-02-17T23:09:03.270Z,118.07
2023-02-17T23:11:50.081Z,109.70
2023-02-17T23:14:39.916Z,101.28
2023-02-17T23:17:11.470Z,96.13
2023-02-17T23:19:40.945Z,94.65
2023-02-17T23:22:12.297Z,92.43
2023-02-17T23:24:40.212Z,88.60
2023-02-17T23:27:08.513Z,82.88
2023-02-17T23:29:38.182Z,80.15
2023-02-17T23:32:06.433Z,77.90
2023-02-17T23:34:34.453Z,75.70
2023-02-17T23:37:02.336Z,75.13
2023-02-17T23:39:30.255Z,71.22
2023-02-17T23:41:58.087Z,73.55
2023-02-17T23:44:25.865Z,75.03
2023-02-17T23:46:53.768Z,73.13
2023-02-17T23:49:21.677Z,69.72
2023-02-17T23:51:50.010Z,69.13
2023-02-17T23:54:17.926Z,67.72
2023-02-17T23:56:45.808Z,67.88
2023-02-17T23:59:13.864Z,66.45
